Time;durP1;ratioP1;P1;durP2;ratioP2;P2;SDS_P1;SDS_P2;PMS_P1;PMS_P2;Temp;Humidity;BMP_temperature;BMP_pressure;BME280_temperature;BME280_humidity;BME280_pressure;Samples;Min_cycle;Max_cycle;Signal;HPM_P1;HPM_P2
2023/10/21 00:01:39;;;;;;;1.60;1.50;;;6.10;99.90;;;;;;5086242;28;20221;-47
2023/10/21 00:04:06;;;;;;;2.10;1.80;;;6.10;99.90;;;;;;5099527;28;20193;-45
2023/10/21 00:06:33;;;;;;;3.23;1.70;;;6.00;99.90;;;;;;5109313;28;20188;-47
2023/10/21 00:09:01;;;;;;;1.73;1.63;;;6.10;99.90;;;;;;5091952;28;20209;-45
2023/10/21 00:11:27;;;;;;;2.20;1.40;;;6.10;99.90;;;;;;5106282;28;20355;-48
2023/10/21 00:13:54;;;;;;;2.17;1.90;;;6.10;99.90;;;;;;5098921;28;20724;-48
2023/10/21 00:16:21;;;;;;;1.67;1.50;;;6.10;99.90;;;;;;5084170;28;20241;-45
2023/10/21 00:18:48;;;;;;;2.67;2.03;;;6.10;99.90;;;;;;5100006;28;20554;-50
2023/10/21 00:21:15;;;;;;;2.50;2.03;;;6.10;99.90;;;;;;5102774;28;20284;-44
2023/10/21 00:23:42;;;;;;;3.03;2.03;;;6.10;99.90;;;;;;5099746;28;20261;-49
2023/10/21 00:26:10;;;;;;;2.40;2.20;;;6.10;99.90;;;;;;5099257;28;20190;-46
2023/10/21 00:28:38;;;;;;;5.47;2.43;;;6.10;99.90;;;;;;5104505;27;20230;-45
2023/10/21 00:31:05;;;;;;;2.20;2.00;;;6.10;99.90;;;;;;5085203;28;21204;-45
2023/10/21 00:33:32;;;;;;;4.03;2.43;;;6.10;99.90;;;;;;5103547;28;20208;-49
2023/10/21 00:35:59;;;;;;;3.10;2.40;;;6.10;99.90;;;;;;5097215;28;20863;-44
2023/10/21 00:38:26;;;;;;;2.77;2.47;;;6.10;99.90;;;;;;5107204;28;20189;-45
2023/10/21 00:40:53;;;;;;;3.20;2.50;;;6.10;99.90;;;;;;5090827;28;20201;-46
2023/10/21 00:43:36;;;;;;;5.17;2.70;;;6.10;99.90;;;;;;5106936;28;20205;-45
2023/10/21 00:46:07;;;;;;;2.83;2.40;;;6.10;99.90;;;;;;5099603;28;20242;-45
2023/10/21 00:48:34;;;;;;;3.57;3.00;;;6.10;99.90;;;;;;5081117;28;20269;-45
2023/10/21 00:51:01;;;;;;;2.60;2.40;;;6.10;99.90;;;;;;5099846;28;20205;-44
2023/10/21 00:53:29;;;;;;;3.87;2.67;;;6.10;99.90;;;;;;5106231;28;20288;-48
2023/10/21 00:55:56;;;;;;;4.90;2.90;;;6.10;99.90;;;;;;5099755;27;20217;-47
2023/10/21 00:58:25;;;;;;;6.53;2.33;;;6.10;99.90;;;;;;5103424;27;20255;-45
2023/10/21 01:00:53;;;;;;;5.13;2.83;;;6.10;99.90;;;;;;5102623;27;20201;-46
2023/10/21 01:03:22;;;;;;;3.53;2.83;;;6.10;99.90;;;;;;5085793;27;20216;-45
2023/10/21 01:05:49;;;;;;;7.40;2.97;;;6.20;99.90;;;;;;5109159;27;20198;-45
2023/10/21 01:08:15;;;;;;;4.43;2.50;;;6.20;99.90;;;;;;5105878;27;20201;-45
2023/10/21 01:10:43;;;;;;;5.73;3.20;;;6.10;99.90;;;;;;5098182;28;20214;-48
2023/10/21 01:13:09;;;;;;;5.23;3.50;;;6.20;99.90;;;;;;5102581;28;20197;-45
2023/10/21 01:15:36;;;;;;;6.23;3.27;;;6.20;99.90;;;;;;5107611;27;20209;-48
2023/10/21 01:18:06;;;;;;;4.70;3.07;;;6.20;99.90;;;;;;5104608;27;20186;-45
2023/10/21 01:20:33;;;;;;;9.07;3.57;;;6.20;99.90;;;;;;5089366;27;20334;-46
2023/10/21 01:23:00;;;;;;;6.13;4.03;;;6.20;99.90;;;;;;5102267;27;20209;-45
2023/10/21 01:25:28;;;;;;;7.13;3.67;;;6.20;99.90;;;;;;5097811;27;20194;-45
2023/10/21 01:27:56;;;;;;;5.90;3.30;;;6.20;99.90;;;;;;5100094;28;20239;-45
2023/10/21 01:30:23;;;;;;;5.97;3.60;;;6.20;99.90;;;;;;5107696;27;20574;-46
2023/10/21 01:32:50;;;;;;;5.30;3.77;;;6.20;99.90;;;;;;5103854;27;20682;-45
2023/10/21 01:35:18;;;;;;;6.30;3.67;;;6.20;99.90;;;;;;5077942;28;20704;-45
2023/10/21 01:37:46;;;;;;;5.93;3.87;;;6.30;99.90;;;;;;5104436;27;20194;-48
2023/10/21 01:40:13;;;;;;;7.13;3.60;;;6.20;99.90;;;;;;5105388;27;20250;-44
2023/10/21 01:42:42;;;;;;;7.60;4.20;;;6.20;99.90;;;;;;5100947;27;20215;-51
2023/10/21 01:45:10;;;;;;;4.73;3.53;;;6.30;99.90;;;;;;5100475;27;20194;-45
2023/10/21 01:47:37;;;;;;;9.07;4.07;;;6.30;99.90;;;;;;5106906;27;20193;-49
2023/10/21 01:50:07;;;;;;;6.43;4.03;;;6.30;99.90;;;;;;5082221;27;21164;-45
2023/10/21 01:52:34;;;;;;;6.33;3.77;;;6.30;99.90;;;;;;5107932;27;20212;-45
2023/10/21 01:55:03;;;;;;;8.80;3.70;;;6.30;99.90;;;;;;5101384;27;20259;-46
2023/10/21 01:57:31;;;;;;;9.53;4.80;;;6.30;99.90;;;;;;5096403;27;20225;-47
2023/10/21 02:00:00;;;;;;;8.40;5.00;;;6.30;99.90;;;;;;5099671;28;20268;-46
2023/10/21 02:02:27;;;;;;;8.63;4.33;;;6.30;99.90;;;;;;5106507;27;20213;-44
2023/10/21 02:04:53;;;;;;;5.57;4.27;;;6.30;99.90;;;;;;5099332;27;20189;-50
2023/10/21 02:07:20;;;;;;;6.63;4.57;;;6.30;99.90;;;;;;5086906;27;20216;-45
2023/10/21 02:09:48;;;;;;;10.27;4.80;;;6.30;99.90;;;;;;5101770;27;20606;-47
2023/10/21 02:12:14;;;;;;;13.33;5.20;;;6.40;99.90;;;;;;5098305;27;20303;-45
2023/10/21 02:14:41;;;;;;;7.97;4.93;;;6.40;99.90;;;;;;5102095;28;20242;-49
2023/10/21 02:17:09;;;;;;;8.73;4.83;;;6.40;99.90;;;;;;5101643;27;20213;-46
2023/10/21 02:19:36;;;;;;;8.17;5.60;;;6.40;99.90;;;;;;5102246;27;20644;-47
2023/10/21 02:22:03;;;;;;;12.23;5.43;;;6.40;99.90;;;;;;5084448;27;21858;-47
2023/10/21 02:24:34;;;;;;;9.87;5.20;;;6.40;99.90;;;;;;5095144;27;20197;-46
2023/10/21 02:27:01;;;;;;;10.37;6.07;;;6.40;99.90;;;;;;5098526;27;20193;-44
2023/10/21 02:29:29;;;;;;;10.67;5.33;;;6.40;99.90;;;;;;5104741;27;20203;-45
2023/10/21 02:31:56;;;;;;;12.47;6.20;;;6.40;99.90;;;;;;5099864;28;20265;-45
2023/10/21 02:34:24;;;;;;;10.57;5.97;;;6.40;99.90;;;;;;5102670;28;20194;-46
2023/10/21 02:36:51;;;;;;;11.23;5.93;;;6.40;99.90;;;;;;5085184;27;20220;-47
2023/10/21 02:39:18;;;;;;;9.70;6.40;;;6.50;99.90;;;;;;5096654;28;20574;-45
2023/10/21 02:41:44;;;;;;;7.63;5.60;;;6.50;99.90;;;;;;5103055;27;20220;-47
2023/10/21 02:44:12;;;;;;;12.67;6.10;;;6.50;99.90;;;;;;5096252;27;20197;-45
2023/10/21 02:46:39;;;;;;;12.50;6.53;;;6.50;99.90;;;;;;5101486;28;20189;-48
2023/10/21 02:49:06;;;;;;;11.63;6.57;;;6.50;99.90;;;;;;5101475;28;20276;-45
2023/10/21 02:51:34;;;;;;;11.80;7.43;;;6.50;99.90;;;;;;5102234;28;20212;-45
2023/10/21 02:54:01;;;;;;;16.20;7.00;;;6.50;99.90;;;;;;5086677;27;20261;-45
2023/10/21 02:56:28;;;;;;;17.77;7.07;;;6.50;99.90;;;;;;5106865;27;20217;-45
2023/10/21 02:58:55;;;;;;;29.40;7.53;;;6.50;99.90;;;;;;5093523;27;20225;-45
2023/10/21 03:01:25;;;;;;;11.20;6.73;;;6.50;99.90;;;;;;5106610;27;20638;-45
2023/10/21 03:03:53;;;;;;;14.90;6.53;;;6.60;99.90;;;;;;5099742;28;20182;-47
2023/10/21 03:06:21;;;;;;;30.47;7.20;;;6.50;99.90;;;;;;5101165;28;20254;-44
2023/10/21 03:08:49;;;;;;;13.07;7.43;;;6.60;99.90;;;;;;5086981;27;20694;-46
2023/10/21 03:11:17;;;;;;;14.50;7.27;;;6.60;99.90;;;;;;5100671;27;20224;-46
2023/10/21 03:13:44;;;;;;;15.67;7.93;;;6.60;99.90;;;;;;5100466;27;20197;-49
2023/10/21 03:16:13;;;;;;;17.83;8.23;;;6.60;99.90;;;;;;5098721;28;20213;-44
2023/10/21 03:18:41;;;;;;;17.53;7.63;;;6.60;99.90;;;;;;5100059;28;20206;-50
2023/10/21 03:21:09;;;;;;;20.00;7.97;;;6.60;99.90;;;;;;5098631;28;20208;-44
2023/10/21 03:23:37;;;;;;;16.70;8.23;;;6.60;99.90;;;;;;5104043;27;20197;-47
2023/10/21 03:26:06;;;;;;;17.03;8.23;;;6.70;99.90;;;;;;5089736;27;20270;-49
2023/10/21 03:28:34;;;;;;;19.80;7.87;;;6.70;99.90;;;;;;5104368;27;20201;-44
2023/10/21 03:31:03;;;;;;;17.03;7.47;;;6.70;99.90;;;;;;5094440;27;21053;-46
2023/10/21 03:33:31;;;;;;;19.07;8.17;;;6.70;99.90;;;;;;5104717;27;20254;-47
2023/10/21 03:35:59;;;;;;;28.47;8.70;;;6.70;99.90;;;;;;5101410;27;20213;-44
2023/10/21 03:38:26;;;;;;;20.63;8.63;;;6.70;99.90;;;;;;5105641;27;20221;-46
2023/10/21 03:41:00;;;;;;;18.33;8.07;;;6.70;99.90;;;;;;5085244;27;20638;-48
2023/10/21 03:43:28;;;;;;;31.67;9.30;;;6.70;99.90;;;;;;5106047;27;20193;-44
2023/10/21 03:45:56;;;;;;;21.33;9.00;;;6.80;99.90;;;;;;5095345;27;20834;-44
2023/10/21 03:48:23;;;;;;;16.90;8.20;;;6.80;99.90;;;;;;5103146;28;20578;-46
2023/10/21 03:50:51;;;;;;;19.83;8.90;;;6.80;99.90;;;;;;5097947;28;20193;-48
2023/10/21 03:53:18;;;;;;;22.00;8.70;;;6.80;99.90;;;;;;5105234;27;20189;-46
2023/10/21 03:55:45;;;;;;;16.23;7.77;;;6.80;99.90;;;;;;5101978;28;20195;-45
2023/10/21 03:58:13;;;;;;;19.03;8.33;;;6.80;99.90;;;;;;5081117;27;20193;-45
2023/10/21 04:00:41;;;;;;;23.10;8.63;;;6.80;99.90;;;;;;5097331;28;20193;-48
2023/10/21 04:03:08;;;;;;;19.50;8.23;;;6.80;99.90;;;;;;5102805;27;20515;-47
2023/10/21 04:05:35;;;;;;;27.53;9.93;;;6.80;99.90;;;;;;5105244;27;20193;-47
2023/10/21 04:08:05;;;;;;;27.20;9.97;;;6.80;99.90;;;;;;5096970;28;20250;-46
2023/10/21 04:10:32;;;;;;;27.50;8.77;;;6.90;99.90;;;;;;5104577;28;20193;-45
2023/10/21 04:13:01;;;;;;;20.47;8.87;;;6.90;99.90;;;;;;5083616;28;20204;-45
2023/10/21 04:15:28;;;;;;;25.83;9.07;;;6.90;99.90;;;;;;5100259;28;20193;-47
2023/10/21 04:17:56;;;;;;;30.53;10.60;;;6.90;99.90;;;;;;5100301;28;20232;-44
2023/10/21 04:20:23;;;;;;;26.77;8.77;;;6.90;99.90;;;;;;5103027;28;20238;-44
2023/10/21 04:22:50;;;;;;;26.03;8.30;;;6.90;99.90;;;;;;5099633;28;20641;-45
2023/10/21 04:25:17;;;;;;;25.80;8.53;;;6.90;99.90;;;;;;5104534;28;20249;-45
2023/10/21 04:27:44;;;;;;;22.93;9.27;;;6.90;99.90;;;;;;5092990;28;20228;-46
2023/10/21 04:30:12;;;;;;;30.67;8.37;;;6.90;99.90;;;;;;5096918;28;20737;-45
2023/10/21 04:32:38;;;;;;;32.17;9.10;;;6.90;99.90;;;;;;5109188;27;20768;-46
2023/10/21 04:35:08;;;;;;;17.57;8.00;;;7.00;99.90;;;;;;5103691;28;20197;-44
2023/10/21 04:37:35;;;;;;;38.13;8.87;;;7.00;99.90;;;;;;5107024;27;20220;-47
2023/10/21 04:40:03;;;;;;;32.00;10.50;;;7.00;99.90;;;;;;5102706;28;20201;-46
2023/10/21 04:42:30;;;;;;;21.63;7.73;;;7.00;99.90;;;;;;5108173;27;20221;-44
2023/10/21 04:44:57;;;;;;;22.67;8.63;;;7.00;99.90;;;;;;5089135;27;20193;-44
2023/10/21 04:47:24;;;;;;;24.20;8.43;;;7.00;99.90;;;;;;5109074;27;20196;-44
2023/10/21 04:49:50;;;;;;;19.83;9.37;;;7.00;99.90;;;;;;5103774;27;20259;-49
2023/10/21 04:52:19;;;;;;;29.40;9.40;;;7.00;99.90;;;;;;5104523;27;20220;-47
2023/10/21 04:54:46;;;;;;;34.00;9.10;;;7.00;99.90;;;;;;5104460;27;20724;-44
2023/10/21 04:57:13;;;;;;;24.80;8.73;;;7.00;99.90;;;;;;5106287;27;20221;-49
2023/10/21 04:59:39;;;;;;;28.63;9.07;;;7.00;99.90;;;;;;5084339;27;20233;-47
2023/10/21 05:02:07;;;;;;;24.83;9.50;;;7.00;99.90;;;;;;5099073;27;21554;-45
2023/10/21 05:04:34;;;;;;;26.67;9.10;;;7.00;99.90;;;;;;5107380;27;20690;-44
2023/10/21 05:07:02;;;;;;;29.90;9.53;;;7.00;99.90;;;;;;5103014;27;20181;-45
2023/10/21 05:09:32;;;;;;;21.10;8.67;;;7.00;99.90;;;;;;5108720;27;20197;-47
2023/10/21 05:11:59;;;;;;;23.00;9.17;;;7.10;99.90;;;;;;5103084;27;20213;-45
2023/10/21 05:14:27;;;;;;;26.73;9.17;;;7.00;99.90;;;;;;5103241;27;20250;-45
2023/10/21 05:16:53;;;;;;;24.30;8.50;;;7.10;99.90;;;;;;5087904;27;20217;-47
2023/10/21 05:19:20;;;;;;;28.73;8.80;;;7.10;99.90;;;;;;5106440;27;20204;-45
2023/10/21 05:21:48;;;;;;;25.80;9.00;;;7.10;99.90;;;;;;5103878;27;20213;-46
2023/10/21 05:24:14;;;;;;;29.93;10.23;;;7.10;99.90;;;;;;5104747;28;21496;-45
2023/10/21 05:26:43;;;;;;;25.23;9.57;;;7.10;99.90;;;;;;5103030;27;20284;-47
2023/10/21 05:29:11;;;;;;;28.03;9.50;;;7.10;99.90;;;;;;5105558;27;20193;-45
2023/10/21 05:31:38;;;;;;;23.53;9.13;;;7.10;99.90;;;;;;5087298;27;20223;-47
2023/10/21 05:34:06;;;;;;;22.43;8.40;;;7.10;99.90;;;;;;5099357;27;21034;-46
2023/10/21 05:36:33;;;;;;;27.57;8.83;;;7.10;99.90;;;;;;5104935;28;20217;-45
2023/10/21 05:39:00;;;;;;;32.30;9.53;;;7.20;99.90;;;;;;5106100;27;20297;-45
2023/10/21 05:41:28;;;;;;;28.40;8.80;;;7.20;99.90;;;;;;5102685;27;20707;-44
2023/10/21 05:43:56;;;;;;;21.00;8.60;;;7.20;99.90;;;;;;5100344;27;20223;-49
2023/10/21 05:46:23;;;;;;;28.43;9.70;;;7.20;99.90;;;;;;5105004;27;20554;-44
2023/10/21 05:48:49;;;;;;;22.67;9.80;;;7.20;99.90;;;;;;5079835;28;20205;-46
2023/10/21 05:51:16;;;;;;;23.20;9.87;;;7.20;99.90;;;;;;5104767;27;20213;-45
2023/10/21 05:53:43;;;;;;;20.77;8.77;;;7.20;99.90;;;;;;5103471;27;20227;-47
2023/10/21 05:56:12;;;;;;;19.40;9.93;;;7.20;99.90;;;;;;5104629;27;20182;-47
2023/10/21 05:58:39;;;;;;;29.13;10.13;;;7.20;99.90;;;;;;5103617;27;20243;-47
2023/10/21 06:01:08;;;;;;;24.17;10.20;;;7.20;99.90;;;;;;5105055;27;20258;-44
2023/10/21 06:03:36;;;;;;;23.07;10.13;;;7.20;99.90;;;;;;5086693;27;20225;-45
2023/10/21 06:06:03;;;;;;;21.50;9.70;;;7.20;99.90;;;;;;5097926;28;20185;-44
2023/10/21 06:08:30;;;;;;;22.77;9.57;;;7.30;99.90;;;;;;5109031;27;20269;-45
2023/10/21 06:10:57;;;;;;;17.93;9.00;;;7.30;99.90;;;;;;5099568;28;20193;-48
2023/10/21 06:13:24;;;;;;;21.63;9.87;;;7.30;99.90;;;;;;5104417;27;20239;-44
2023/10/21 06:15:51;;;;;;;23.20;9.13;;;7.30;99.90;;;;;;5105342;27;20665;-47
2023/10/21 06:18:20;;;;;;;22.83;9.23;;;7.30;99.90;;;;;;5101995;28;20213;-44
2023/10/21 06:20:49;;;;;;;25.70;9.83;;;7.30;99.90;;;;;;5077812;27;20816;-47
2023/10/21 06:23:16;;;;;;;20.60;9.40;;;7.40;99.90;;;;;;5102911;28;20197;-45
2023/10/21 06:25:43;;;;;;;23.33;9.07;;;7.30;99.90;;;;;;5104455;27;20216;-46
2023/10/21 06:28:11;;;;;;;26.87;8.70;;;7.40;99.90;;;;;;5102476;28;20246;-46
2023/10/21 06:30:39;;;;;;;19.93;8.87;;;7.40;99.90;;;;;;5107036;27;21380;-49
2023/10/21 06:33:06;;;;;;;25.03;10.17;;;7.40;99.90;;;;;;5099550;27;20192;-45
2023/10/21 06:35:34;;;;;;;16.13;8.13;;;7.40;99.90;;;;;;5078640;27;20226;-44
2023/10/21 06:38:01;;;;;;;17.60;9.53;;;7.40;99.90;;;;;;5105161;27;20282;-47
2023/10/21 06:40:28;;;;;;;14.70;8.57;;;7.40;99.90;;;;;;5101667;27;20242;-45
2023/10/21 06:42:55;;;;;;;13.33;8.33;;;7.40;99.90;;;;;;5103275;28;20217;-47
2023/10/21 06:45:22;;;;;;;11.77;7.87;;;7.50;99.90;;;;;;5104154;27;20201;-46
2023/10/21 06:47:49;;;;;;;15.20;7.40;;;7.50;99.90;;;;;;5104319;28;20277;-48
2023/10/21 06:50:16;;;;;;;18.80;8.87;;;7.50;99.90;;;;;;5075989;27;20218;-47
2023/10/21 06:52:44;;;;;;;16.37;8.63;;;7.50;99.90;;;;;;5103437;28;20217;-46
2023/10/21 06:55:11;;;;;;;14.23;8.53;;;7.50;99.90;;;;;;5100721;28;20656;-49
2023/10/21 06:57:38;;;;;;;19.63;8.77;;;7.50;99.90;;;;;;5102470;28;20259;-49
2023/10/21 07:00:06;;;;;;;12.47;8.80;;;7.50;99.90;;;;;;5104712;27;20226;-46
2023/10/21 07:02:33;;;;;;;17.33;9.43;;;7.50;99.90;;;;;;5105292;27;20235;-48
2023/10/21 07:05:00;;;;;;;17.13;8.37;;;7.50;99.90;;;;;;5093295;28;20197;-45
2023/10/21 07:07:27;;;;;;;14.70;8.67;;;7.60;99.90;;;;;;5088206;27;20193;-47
2023/10/21 07:09:55;;;;;;;19.57;10.10;;;7.60;99.90;;;;;;5103951;28;20537;-45
2023/10/21 07:12:21;;;;;;;17.60;9.37;;;7.60;99.90;;;;;;5100437;27;20205;-46
2023/10/21 07:14:49;;;;;;;14.47;9.80;;;7.60;99.90;;;;;;5103832;28;20254;-47
2023/10/21 07:17:16;;;;;;;14.70;9.43;;;7.60;99.90;;;;;;5099413;28;20209;-47
2023/10/21 07:19:43;;;;;;;17.63;9.07;;;7.60;99.90;;;;;;5101186;27;20266;-48
2023/10/21 07:22:10;;;;;;;16.73;10.17;;;7.60;99.90;;;;;;5084376;27;20569;-47
2023/10/21 07:24:37;;;;;;;16.63;9.20;;;7.70;99.90;;;;;;5104529;27;20201;-47
2023/10/21 07:27:05;;;;;;;14.57;8.23;;;7.70;99.90;;;;;;5102037;28;20185;-48
2023/10/21 07:29:32;;;;;;;14.50;9.23;;;7.70;99.90;;;;;;5105238;27;20185;-48
2023/10/21 07:31:59;;;;;;;13.73;8.70;;;7.70;99.90;;;;;;5102589;27;20557;-49
2023/10/21 07:34:27;;;;;;;15.33;8.87;;;7.70;99.90;;;;;;5097988;28;20293;-46
2023/10/21 07:36:54;;;;;;;14.10;9.17;;;7.70;99.90;;;;;;5103586;28;20194;-47
2023/10/21 07:39:20;;;;;;;13.97;8.50;;;7.80;99.90;;;;;;5081750;28;20972;-47
2023/10/21 07:41:47;;;;;;;13.67;8.70;;;7.80;99.90;;;;;;5102622;28;20569;-45
2023/10/21 07:44:15;;;;;;;15.33;8.67;;;7.80;99.90;;;;;;5100161;28;20201;-47
2023/10/21 07:46:42;;;;;;;14.77;8.80;;;7.80;99.90;;;;;;5101837;28;20250;-48
2023/10/21 07:49:08;;;;;;;11.23;8.33;;;7.80;99.90;;;;;;5103414;28;20729;-47
2023/10/21 07:51:35;;;;;;;14.80;7.90;;;7.80;99.90;;;;;;5095780;28;20293;-49
2023/10/21 07:54:03;;;;;;;9.47;7.50;;;7.80;99.90;;;;;;5085110;28;20197;-47
2023/10/21 07:56:29;;;;;;;15.17;9.33;;;7.80;99.90;;;;;;5101015;28;20835;-45
2023/10/21 07:58:56;;;;;;;13.80;8.30;;;7.80;99.90;;;;;;5103270;28;20624;-46
2023/10/21 08:01:24;;;;;;;14.77;9.10;;;7.90;99.90;;;;;;5098931;28;20216;-46
2023/10/21 08:03:52;;;;;;;12.40;8.30;;;7.90;99.90;;;;;;5104468;28;20580;-47
2023/10/21 08:06:19;;;;;;;14.73;8.90;;;7.90;99.90;;;;;;5095464;28;20201;-46
2023/10/21 08:08:45;;;;;;;16.63;9.03;;;8.00;99.90;;;;;;5103134;28;20185;-48
2023/10/21 08:11:13;;;;;;;12.10;8.27;;;8.00;99.90;;;;;;5082946;28;20221;-47
2023/10/21 08:13:39;;;;;;;11.07;7.50;;;8.00;99.90;;;;;;5106148;28;20193;-45
2023/10/21 08:16:06;;;;;;;12.93;8.53;;;8.10;99.90;;;;;;5100690;28;20671;-47
2023/10/21 08:18:34;;;;;;;13.20;7.80;;;8.10;99.90;;;;;;5104257;28;20205;-45
2023/10/21 08:21:02;;;;;;;12.40;8.20;;;8.10;99.90;;;;;;5100165;28;20729;-47
2023/10/21 08:23:29;;;;;;;13.17;8.37;;;8.20;99.90;;;;;;5100166;28;20185;-46
2023/10/21 08:25:57;;;;;;;11.00;7.90;;;8.20;99.90;;;;;;5085474;28;20197;-45
2023/10/21 08:28:24;;;;;;;12.80;7.47;;;8.20;99.90;;;;;;5102709;28;20194;-47
2023/10/21 08:30:51;;;;;;;9.90;7.17;;;8.20;99.90;;;;;;5106229;28;20242;-45
2023/10/21 08:33:18;;;;;;;10.93;7.40;;;8.30;99.90;;;;;;5100748;28;20197;-45
2023/10/21 08:35:46;;;;;;;10.27;6.50;;;8.30;99.90;;;;;;5108140;28;20679;-46
2023/10/21 08:38:14;;;;;;;9.57;6.37;;;8.40;99.90;;;;;;5103614;28;20766;-49
2023/10/21 08:40:45;;;;;;;9.37;6.20;;;8.30;99.90;;;;;;5082895;28;20634;-46
2023/10/21 08:43:16;;;;;;;8.77;6.37;;;8.40;99.90;;;;;;5099005;28;20201;-47
2023/10/21 08:45:44;;;;;;;8.63;5.77;;;8.40;99.90;;;;;;5102454;28;20205;-46
2023/10/21 08:48:12;;;;;;;8.30;5.80;;;8.30;99.90;;;;;;5102782;28;20193;-47
2023/10/21 08:50:40;;;;;;;7.10;5.40;;;8.40;99.90;;;;;;5103218;28;20193;-46
2023/10/21 08:53:11;;;;;;;6.20;5.33;;;8.40;99.90;;;;;;5098972;28;20198;-48
2023/10/21 08:55:39;;;;;;;9.37;5.80;;;8.40;99.90;;;;;;5084449;28;20219;-45
2023/10/21 08:58:07;;;;;;;6.07;5.00;;;8.40;99.90;;;;;;5100447;28;20258;-47
2023/10/21 09:00:34;;;;;;;6.90;4.97;;;8.50;99.90;;;;;;5102477;28;20280;-46
2023/10/21 09:03:01;;;;;;;6.10;4.87;;;8.50;99.90;;;;;;5101789;28;20213;-47
2023/10/21 09:05:28;;;;;;;7.87;5.07;;;8.50;99.90;;;;;;5099549;28;20178;-45
2023/10/21 09:07:55;;;;;;;5.90;4.73;;;8.50;99.90;;;;;;5093401;28;20655;-47
2023/10/21 09:10:23;;;;;;;6.60;5.30;;;8.60;99.90;;;;;;5099956;28;20813;-45
2023/10/21 09:12:50;;;;;;;6.60;4.97;;;8.60;99.90;;;;;;5086625;28;20262;-45
2023/10/21 09:15:18;;;;;;;4.57;4.17;;;8.60;99.90;;;;;;5100147;28;20254;-45
2023/10/21 09:17:46;;;;;;;6.57;4.63;;;8.60;99.90;;;;;;5102499;28;20213;-50
2023/10/21 09:20:15;;;;;;;5.37;4.33;;;8.60;99.90;;;;;;5103463;27;20227;-47
2023/10/21 09:22:44;;;;;;;6.13;4.30;;;8.70;99.90;;;;;;5108973;27;20221;-50
2023/10/21 09:25:15;;;;;;;4.37;3.97;;;8.60;99.90;;;;;;5107641;27;20201;-48
2023/10/21 09:27:44;;;;;;;4.33;3.93;;;8.60;99.90;;;;;;5085850;27;20572;-45
2023/10/21 09:30:16;;;;;;;4.80;4.30;;;8.60;99.90;;;;;;5105860;27;20201;-46
2023/10/21 09:32:43;;;;;;;4.50;3.87;;;8.60;99.90;;;;;;5106433;27;20646;-45
2023/10/21 09:35:15;;;;;;;4.53;3.53;;;8.70;99.90;;;;;;5103632;27;20677;-46
2023/10/21 09:37:42;;;;;;;3.47;3.10;;;8.70;99.90;;;;;;5102481;28;20197;-48
2023/10/21 09:40:10;;;;;;;4.67;3.40;;;8.70;99.90;;;;;;5095188;28;20341;-45
2023/10/21 09:42:38;;;;;;;4.10;3.67;;;8.70;99.90;;;;;;5080406;28;20217;-48
2023/10/21 09:45:08;;;;;;;4.23;3.13;;;8.70;99.90;;;;;;5105108;27;20182;-45
2023/10/21 09:47:39;;;;;;;3.83;3.43;;;8.70;99.90;;;;;;5102497;28;20197;-48
2023/10/21 09:50:09;;;;;;;3.60;3.30;;;8.70;99.90;;;;;;5104095;28;20189;-44
2023/10/21 09:52:44;;;;;;;3.40;3.10;;;8.70;99.90;;;;;;5104814;27;20277;-47
2023/10/21 09:55:12;;;;;;;3.80;3.50;;;8.70;99.90;;;;;;5101432;27;20204;-45
2023/10/21 09:57:40;;;;;;;3.63;3.20;;;8.80;99.90;;;;;;5080657;28;20230;-46
2023/10/21 10:00:10;;;;;;;4.60;3.30;;;8.80;99.90;;;;;;5109348;27;20267;-45
2023/10/21 10:02:37;;;;;;;3.10;2.90;;;8.80;99.90;;;;;;5104072;27;20213;-46
2023/10/21 10:05:07;;;;;;;3.40;3.10;;;8.80;99.90;;;;;;5104212;27;20923;-45
2023/10/21 10:07:36;;;;;;;3.27;2.97;;;8.80;99.90;;;;;;5103667;28;20250;-49
2023/10/21 10:10:04;;;;;;;4.33;3.00;;;8.90;99.90;;;;;;5099516;28;20285;-46
2023/10/21 10:12:37;;;;;;;3.10;2.90;;;8.90;99.90;;;;;;5082979;27;20218;-48
2023/10/21 10:15:33;;;;;;;3.10;2.83;;;8.90;99.90;;;;;;5104830;27;20196;-45
2023/10/21 10:18:02;;;;;;;2.90;2.70;;;9.00;99.90;;;;;;5104250;27;20243;-45
2023/10/21 10:20:30;;;;;;;4.40;3.03;;;9.00;99.90;;;;;;5104520;27;20724;-48
2023/10/21 10:23:01;;;;;;;2.80;2.60;;;9.00;99.90;;;;;;5102441;27;20201;-44
2023/10/21 10:25:32;;;;;;;4.37;3.50;;;9.00;99.90;;;;;;5103401;28;20197;-48
2023/10/21 10:28:00;;;;;;;4.50;3.63;;;9.10;99.90;;;;;;5085586;27;20205;-45
2023/10/21 10:30:31;;;;;;;4.73;3.63;;;9.00;99.90;;;;;;5103935;28;20198;-47
2023/10/21 10:33:06;;;;;;;3.50;3.13;;;9.10;99.90;;;;;;5107379;27;20201;-49
2023/10/21 10:35:34;;;;;;;3.80;3.50;;;9.10;99.90;;;;;;5105823;27;20748;-47
2023/10/21 10:38:02;;;;;;;5.47;3.80;;;9.10;99.90;;;;;;5104052;27;20193;-45
2023/10/21 10:40:37;;;;;;;4.30;3.90;;;9.10;99.90;;;;;;5104868;27;20225;-47
2023/10/21 10:43:04;;;;;;;4.37;3.97;;;9.20;99.90;;;;;;5083805;27;20208;-48
2023/10/21 10:45:34;;;;;;;4.37;3.97;;;9.10;99.90;;;;;;5105952;27;20232;-47
2023/10/21 10:48:03;;;;;;;5.17;4.23;;;9.20;99.90;;;;;;5105037;27;20926;-46
2023/10/21 10:50:31;;;;;;;5.17;3.70;;;9.20;99.90;;;;;;5104868;27;20203;-50
2023/10/21 10:52:59;;;;;;;4.77;4.20;;;9.20;99.90;;;;;;5100962;27;21163;-45
2023/10/21 10:55:26;;;;;;;5.47;4.73;;;9.20;99.90;;;;;;5106108;27;20205;-47
2023/10/21 10:57:53;;;;;;;5.13;4.63;;;9.20;99.90;;;;;;5081708;27;20206;-45
2023/10/21 11:00:25;;;;;;;6.30;4.90;;;9.20;99.90;;;;;;5104416;28;20197;-44
2023/10/21 11:02:53;;;;;;;6.67;5.07;;;9.20;99.90;;;;;;5101458;27;20258;-47
2023/10/21 11:05:22;;;;;;;6.33;5.30;;;9.20;99.90;;;;;;5103277;28;20259;-49
2023/10/21 11:07:50;;;;;;;8.47;5.50;;;9.20;99.90;;;;;;5099353;28;20189;-48
2023/10/21 11:10:21;;;;;;;6.90;6.20;;;9.20;99.90;;;;;;5106041;27;20190;-44
2023/10/21 11:12:49;;;;;;;6.63;5.90;;;9.20;99.90;;;;;;5079089;27;20221;-47
2023/10/21 11:15:16;;;;;;;8.90;6.27;;;9.20;99.90;;;;;;5103829;28;20578;-46
2023/10/21 11:17:46;;;;;;;9.63;6.80;;;9.20;99.90;;;;;;5104006;27;20193;-49
2023/10/21 11:20:14;;;;;;;8.50;6.03;;;9.30;99.90;;;;;;5101135;27;20303;-48
2023/10/21 11:22:43;;;;;;;9.40;6.70;;;9.30;99.90;;;;;;5101639;27;20213;-46
2023/10/21 11:25:10;;;;;;;7.10;6.30;;;9.30;99.90;;;;;;5103333;28;20273;-46
2023/10/21 11:27:39;;;;;;;6.60;5.73;;;9.30;99.90;;;;;;5092751;27;20245;-48
2023/10/21 11:30:08;;;;;;;8.67;6.80;;;9.30;99.90;;;;;;5099041;28;20213;-45
2023/10/21 11:32:37;;;;;;;9.33;6.27;;;9.30;99.90;;;;;;5103561;27;20209;-49
2023/10/21 11:35:04;;;;;;;8.43;6.47;;;9.30;99.90;;;;;;5104237;27;20933;-45
2023/10/21 11:37:31;;;;;;;7.83;6.27;;;9.30;99.90;;;;;;5102488;28;20296;-46
2023/10/21 11:40:00;;;;;;;8.80;6.73;;;9.30;99.90;;;;;;5102996;27;20213;-45
2023/10/21 11:42:27;;;;;;;8.07;7.03;;;9.40;99.90;;;;;;5103485;28;20874;-46
2023/10/21 11:44:58;;;;;;;9.53;7.67;;;9.40;99.90;;;;;;5084634;27;20200;-47
2023/10/21 11:47:27;;;;;;;10.70;7.07;;;9.40;99.90;;;;;;5099265;28;20194;-44
2023/10/21 11:49:55;;;;;;;10.00;7.33;;;9.40;99.90;;;;;;5100383;28;20773;-44
2023/10/21 11:52:23;;;;;;;8.23;7.00;;;9.40;99.90;;;;;;5100887;27;20278;-45
2023/10/21 11:57:56;;;;;;;7.83;6.57;;;9.40;99.90;;;;;;5101316;27;20734;-46
2023/10/21 12:06:46;;;;;;;7.17;5.87;;;9.50;99.90;;;;;;5103596;28;20197;-45
2023/10/21 12:20:24;;;;;;;7.53;6.20;;;9.70;99.90;;;;;;5098684;28;20301;-45
2023/10/21 12:34:14;;;;;;;7.63;6.40;;;9.90;99.90;;;;;;5101996;28;20331;-45
2023/10/21 12:36:54;;;;;;;8.17;6.63;;;9.90;99.90;;;;;;5102351;28;20201;-45
2023/10/21 12:39:21;;;;;;;8.23;6.70;;;10.00;99.90;;;;;;5099740;28;20208;-46
2023/10/21 12:41:52;;;;;;;9.17;7.10;;;10.10;99.90;;;;;;5102272;28;20768;-48
2023/10/21 12:44:23;;;;;;;8.77;7.77;;;10.20;99.90;;;;;;5089857;28;20548;-49
2023/10/21 12:46:57;;;;;;;8.00;7.00;;;10.30;99.90;;;;;;5103390;28;20193;-45
2023/10/21 12:49:27;;;;;;;10.47;7.97;;;10.50;99.90;;;;;;5098083;28;20217;-44
2023/10/21 12:51:55;;;;;;;10.57;7.57;;;10.70;99.90;;;;;;5108110;28;20210;-45
2023/10/21 12:54:22;;;;;;;10.07;7.80;;;10.70;99.90;;;;;;5106241;27;20193;-46
2023/10/21 12:56:50;;;;;;;9.83;7.60;;;10.80;99.90;;;;;;5106581;27;20204;-47
2023/10/21 12:59:19;;;;;;;7.93;7.10;;;10.80;99.90;;;;;;5102815;27;20756;-45
2023/10/21 13:01:46;;;;;;;9.40;7.40;;;10.70;99.90;;;;;;5094289;27;20274;-47
2023/10/21 13:04:14;;;;;;;7.73;7.03;;;10.70;99.90;;;;;;5105051;28;20246;-47
2023/10/21 13:06:42;;;;;;;7.60;6.80;;;10.60;99.90;;;;;;5106118;27;20189;-49
2023/10/21 13:09:23;;;;;;;8.77;7.53;;;10.60;99.90;;;;;;5106833;27;20196;-47
2023/10/21 13:11:50;;;;;;;8.53;7.63;;;10.60;99.90;;;;;;5107084;27;20262;-48
2023/10/21 13:14:18;;;;;;;9.63;7.70;;;10.60;99.90;;;;;;5105550;27;20197;-47
2023/10/21 13:16:45;;;;;;;11.60;8.50;;;10.60;99.90;;;;;;5089352;27;20237;-47
2023/10/21 13:19:14;;;;;;;10.33;9.00;;;10.70;99.90;;;;;;5105577;27;20235;-47
2023/10/21 13:21:41;;;;;;;12.27;8.80;;;10.80;99.90;;;;;;5107054;27;20205;-45
2023/10/21 13:24:09;;;;;;;11.43;9.27;;;10.90;99.90;;;;;;5105319;28;20208;-48
2023/10/21 13:26:37;;;;;;;12.33;9.50;;;11.10;99.90;;;;;;5102115;28;20189;-45